Archival Weather

Chicago O'Hare International

Chicago, Illinois (KORD)

Report from: Tuesday, September 19, 2023 8:51 AM CDT
Current time: Monday, March 4, 2024 7:49 PM CST

Current weather – Weather history – Daily summaries
Weather forecast

Present weatherLight rain, mist
Temperature15.0°C (59.0°F)
Dew point12.2°C (54.0°F)
Winds 4 kts (2.1 m/s, 4.6 mph) South-Southwest (200°)
Visibility6 mi. (9.7 km)
Clouds Few clouds 6,500 ft. (1,981 m)
Ceiling: Overcast 9,000 ft. (2,743 m)
Altimeter30.05 in.Hg (1018 mB)
Precipitiation0.05 in. (1 mm)
Relative humidity83 %
Density altitude52 ft. (16 m)
Sea-level pressure101.8 kPa (1018 mB, 30.05 in.Hg)
Remarks Automated weather observing station with precipitation discriminator
Flight conditions Visual Meteorological Conditions
Raw dataKORD 191351Z 20004KT 6SM -RA BR FEW065 OVC090 15/12 A3005 RMK AO2 SLP176 P0005 T01500122
An error has occurred. This application may no longer respond until reloaded. Reload 🗙